NAG weather

Dr. Babasaheb Ambedkar International Airport
Naqpur, Maharashtra, India

Public forecast

Using degrees Celsius for public forecast. Weather courtesy of forecast.io.

METAR (pilot weather report)

Retrieved 2019/06/16 02:30 UTC (0 seconds ago):

VANP 160230Z 33008KT 4000 HZ FEW020 SCT100 32/22 Q1006 NOSIG

TAF (pilot weather forecast)

Forecast is more than 12 hours old.

Retrieved 2019/06/15 00:42 UTC (1 day ago):

TAF TAF VANP 152300Z 1600/1706 33005KT 3000 -RA HZ SCT020 SCT100 BECMG 1604/1606 29005KT 4000 HZ SCT025 SCT100 BECMG 1612/1614 26005KT 3000 HZ SCT020 SCT100 BECMG 1704/1706 27005KT 5000 HZ SCT025 TEMPO 1610/1614 32010G20KT 1500 TSRA SCT020 FEW030CB BKN090